Time;durP1;ratioP1;P1;durP2;ratioP2;P2;SDS_P1;SDS_P2;PMS_P1;PMS_P2;Temp;Humidity;BMP_temperature;BMP_pressure;BME280_temperature;BME280_humidity;BME280_pressure;Samples;Min_cycle;Max_cycle;Signal;HPM_P1;HPM_P2
2023/06/12 00:00:51;;;;;;;5.38;4.60;;;23.30;99.90;;;;;;4813826;29;37541;-87
2023/06/12 00:03:19;;;;;;;5.70;4.68;;;23.30;99.90;;;;;;4819686;29;38946;-87
2023/06/12 00:05:46;;;;;;;7.32;4.97;;;23.30;99.90;;;;;;4797409;29;37603;-86
2023/06/12 00:08:13;;;;;;;6.20;4.70;;;23.10;99.90;;;;;;4804658;29;37825;-87
2023/06/12 00:10:42;;;;;;;7.43;4.50;;;23.00;99.90;;;;;;4803940;29;38030;-87
2023/06/12 00:13:11;;;;;;;4.75;4.28;;;23.00;99.90;;;;;;4807320;29;37876;-86
2023/06/12 00:15:37;;;;;;;5.30;4.55;;;23.00;99.90;;;;;;4819227;29;38744;-86
2023/06/12 00:18:04;;;;;;;6.15;4.85;;;22.90;99.90;;;;;;4799616;29;37036;-86
2023/06/12 00:20:31;;;;;;;8.27;4.88;;;22.90;99.90;;;;;;4801694;29;36326;-86
2023/06/12 00:22:58;;;;;;;5.40;4.18;;;22.90;99.90;;;;;;4811252;29;39344;-86
2023/06/12 00:25:26;;;;;;;5.72;4.70;;;22.90;99.90;;;;;;4819999;29;38350;-86
2023/06/12 00:27:52;;;;;;;5.00;4.50;;;22.70;99.90;;;;;;4805420;29;36823;-87
2023/06/12 00:30:19;;;;;;;5.50;4.47;;;22.70;99.90;;;;;;4813596;29;37449;-87
2023/06/12 00:32:45;;;;;;;7.38;5.00;;;22.50;99.90;;;;;;4801808;29;37758;-87
2023/06/12 00:35:11;;;;;;;6.10;4.90;;;22.40;99.90;;;;;;4815517;29;37339;-87
2023/06/12 00:37:42;;;;;;;5.85;4.35;;;22.40;99.90;;;;;;4792291;29;39297;-87
2023/06/12 00:40:10;;;;;;;6.22;4.57;;;22.30;99.90;;;;;;4800273;29;36633;-86
2023/06/12 00:42:47;;;;;;;8.18;4.47;;;22.30;99.90;;;;;;4799387;29;38353;-88
2023/06/12 00:45:21;;;;;;;7.28;4.50;;;22.30;99.90;;;;;;4808970;29;38096;-87
2023/06/12 00:47:55;;;;;;;6.82;4.63;;;22.40;99.90;;;;;;4788958;29;36624;-86
2023/06/12 00:50:26;;;;;;;7.50;4.93;;;22.40;99.90;;;;;;4800704;29;37779;-86
2023/06/12 00:52:53;;;;;;;5.50;4.80;;;22.40;99.90;;;;;;4808532;29;38880;-87
2023/06/12 00:55:20;;;;;;;6.22;4.82;;;22.40;99.90;;;;;;4816432;29;38264;-86
2023/06/12 00:57:47;;;;;;;8.05;5.05;;;22.30;99.90;;;;;;4819710;29;36896;-86
2023/06/12 01:03:05;;;;;;;7.05;4.15;;;22.10;99.90;;;;;;5129510;23;20070;-77
2023/06/12 01:05:34;;;;;;;5.75;4.55;;;22.10;99.90;;;;;;4824350;29;48925;-77
2023/06/12 01:08:15;;;;;;;6.55;4.90;;;22.00;99.90;;;;;;4831039;29;38210;-78
2023/06/12 01:10:51;;;;;;;5.32;4.82;;;21.90;99.90;;;;;;4834190;29;47393;-77
2023/06/12 01:13:21;;;;;;;5.28;4.70;;;21.80;99.90;;;;;;4834580;29;38373;-77
2023/06/12 01:15:47;;;;;;;9.88;5.68;;;21.80;99.90;;;;;;4818001;29;37298;-78
2023/06/12 01:18:14;;;;;;;5.70;4.95;;;21.80;99.90;;;;;;4833310;29;39207;-78
2023/06/12 01:20:42;;;;;;;6.05;4.38;;;21.80;99.90;;;;;;4814437;29;36245;-77
2023/06/12 01:23:43;;;;;;;6.38;4.50;;;21.80;99.90;;;;;;4813013;29;39297;-77
2023/06/12 01:26:36;;;;;;;5.78;4.22;;;21.80;99.90;;;;;;4827573;29;39258;-77
2023/06/12 01:29:27;;;;;;;6.25;4.65;;;21.80;99.90;;;;;;4830300;29;37041;-78
2023/06/12 01:32:01;;;;;;;5.00;4.50;;;21.80;99.90;;;;;;4830041;29;36533;-78
2023/06/12 01:34:34;;;;;;;7.07;4.50;;;21.80;99.90;;;;;;4831397;29;49111;-77
2023/06/12 01:37:19;;;;;;;6.32;4.38;;;21.60;99.90;;;;;;4831269;29;38142;-77
2023/06/12 01:39:55;;;;;;;6.00;4.80;;;21.50;99.90;;;;;;4815206;29;47579;-77
2023/06/12 01:42:23;;;;;;;5.75;4.40;;;21.50;1.00;;;;;;4817905;29;35999;-77
2023/06/12 01:44:52;;;;;;;6.30;4.60;;;21.30;1.00;;;;;;4833870;29;39612;-77
2023/06/12 01:47:20;;;;;;;5.30;4.22;;;21.30;1.00;;;;;;4821898;29;37609;-76
2023/06/12 01:49:46;;;;;;;7.05;4.45;;;21.30;1.00;;;;;;4818196;29;37274;-77
2023/06/12 01:52:12;;;;;;;7.07;4.90;;;21.10;1.00;;;;;;4834715;29;36804;-76
2023/06/12 01:54:38;;;;;;;7.90;4.93;;;21.10;1.00;;;;;;4831656;29;37727;-77
2023/06/12 01:57:05;;;;;;;6.60;4.60;;;21.10;1.00;;;;;;4819003;29;38712;-77
2023/06/12 01:59:32;;;;;;;7.05;4.80;;;21.10;1.00;;;;;;4835093;29;39166;-77
2023/06/12 02:01:58;;;;;;;8.73;4.53;;;21.20;1.00;;;;;;4821903;29;36154;-77
2023/06/12 02:04:24;;;;;;;7.47;4.85;;;21.20;1.00;;;;;;4837306;29;38926;-77
2023/06/12 02:06:50;;;;;;;5.72;4.65;;;21.10;1.00;;;;;;4823851;29;37343;-77
2023/06/12 02:09:18;;;;;;;8.07;5.38;;;21.10;1.00;;;;;;4821018;29;38065;-77
2023/06/12 02:11:44;;;;;;;5.53;4.65;;;21.10;1.00;;;;;;4820699;29;36220;-77
2023/06/12 02:14:11;;;;;;;6.32;5.18;;;21.00;1.00;;;;;;4836605;29;38435;-77
2023/06/12 02:16:37;;;;;;;7.43;4.53;;;20.80;1.00;;;;;;4821332;29;37515;-77
2023/06/12 02:19:03;;;;;;;5.63;4.38;;;20.90;1.00;;;;;;4818043;29;36981;-78
2023/06/12 02:21:29;;;;;;;5.57;4.85;;;20.90;1.00;;;;;;4820287;29;37237;-77
2023/06/12 02:23:55;;;;;;;7.85;4.45;;;20.80;1.00;;;;;;4838077;29;39026;-78
2023/06/12 02:26:22;;;;;;;7.70;4.70;;;20.70;1.00;;;;;;4821591;29;37208;-77
2023/06/12 02:29:09;;;;;;;6.20;4.85;;;20.70;1.00;;;;;;4836576;29;38221;-77
2023/06/12 02:31:35;;;;;;;6.00;4.93;;;20.60;1.00;;;;;;4836096;29;48330;-77
2023/06/12 02:34:02;;;;;;;5.03;4.28;;;20.60;1.00;;;;;;4837235;29;38599;-76
2023/06/12 02:36:29;;;;;;;7.15;4.63;;;20.70;1.00;;;;;;4814014;29;47335;-76
2023/06/12 02:38:56;;;;;;;8.20;4.90;;;20.70;1.00;;;;;;4820567;29;37183;-76
2023/06/12 02:41:22;;;;;;;6.32;5.18;;;20.70;1.00;;;;;;4822135;29;37356;-76
2023/06/12 02:43:49;;;;;;;8.52;5.03;;;20.60;1.00;;;;;;4836831;29;37597;-76
2023/06/12 02:46:15;;;;;;;5.95;5.03;;;20.70;1.00;;;;;;4835247;29;37464;-76
2023/06/12 02:48:41;;;;;;;5.97;4.97;;;20.60;1.00;;;;;;4823331;29;37324;-75
2023/06/12 02:51:07;;;;;;;6.15;5.25;;;20.60;1.00;;;;;;4819605;29;35991;-77
2023/06/12 02:53:34;;;;;;;5.38;4.85;;;20.60;1.00;;;;;;4833454;29;37726;-77
2023/06/12 02:56:00;;;;;;;7.13;4.78;;;20.40;1.00;;;;;;4824758;29;38331;-75
2023/06/12 02:58:27;;;;;;;6.07;4.43;;;20.40;1.00;;;;;;4821541;29;37902;-76
2023/06/12 03:00:56;;;;;;;6.95;4.68;;;20.40;1.00;;;;;;4835071;29;36301;-76
2023/06/12 03:03:22;;;;;;;6.90;5.25;;;20.20;99.90;;;;;;4835406;29;39337;-76
2023/06/12 03:05:49;;;;;;;6.47;5.22;;;20.20;99.90;;;;;;4822070;29;37198;-76
2023/06/12 03:08:16;;;;;;;5.75;5.13;;;20.10;99.90;;;;;;4821941;29;38366;-76
2023/06/12 03:10:43;;;;;;;6.28;4.90;;;20.00;1.00;;;;;;4838946;29;37156;-77
2023/06/12 03:13:09;;;;;;;5.95;5.10;;;19.90;1.00;;;;;;4837297;29;40017;-77
2023/06/12 03:15:35;;;;;;;7.53;5.43;;;20.00;99.90;;;;;;4836127;29;38327;-77
2023/06/12 03:18:01;;;;;;;8.07;5.30;;;20.00;1.00;;;;;;4825672;29;36939;-77
2023/06/12 03:20:32;;;;;;;6.30;4.85;;;19.90;1.00;;;;;;4831126;29;35775;-76
2023/06/12 03:23:02;;;;;;;6.57;5.35;;;19.90;1.00;;;;;;4825224;29;38048;-76
2023/06/12 03:25:30;;;;;;;6.72;5.10;;;19.90;1.00;;;;;;4830631;29;48816;-76
2023/06/12 03:27:56;;;;;;;7.25;5.07;;;19.80;1.00;;;;;;4833864;29;38604;-76
2023/06/12 03:30:23;;;;;;;5.97;4.50;;;19.80;1.00;;;;;;4837483;29;35864;-76
2023/06/12 03:32:49;;;;;;;6.13;4.68;;;19.70;1.00;;;;;;4838877;29;38657;-76
2023/06/12 03:35:15;;;;;;;6.03;4.68;;;19.70;1.00;;;;;;4833960;29;37469;-76
2023/06/12 03:37:41;;;;;;;6.10;5.18;;;19.70;99.90;;;;;;4835342;29;38058;-76
2023/06/12 03:40:08;;;;;;;7.13;5.45;;;19.60;1.00;;;;;;4835036;29;37452;-76
2023/06/12 03:42:34;;;;;;;8.05;5.18;;;19.60;1.00;;;;;;4838358;29;38071;-75
2023/06/12 03:45:00;;;;;;;11.43;5.90;;;19.50;1.00;;;;;;4839147;29;38489;-76
2023/06/12 03:47:26;;;;;;;5.47;4.82;;;19.50;1.00;;;;;;4836820;29;37010;-75
2023/06/12 03:49:52;;;;;;;6.00;4.53;;;19.40;1.00;;;;;;4836346;29;36427;-75
2023/06/12 03:52:18;;;;;;;6.90;4.85;;;19.40;99.90;;;;;;4840132;29;37897;-75
2023/06/12 03:54:45;;;;;;;6.70;5.03;;;19.30;60.10;;;;;;4817641;29;38531;-75
2023/06/12 03:57:11;;;;;;;6.30;4.85;;;19.30;99.90;;;;;;4835449;29;37920;-76
2023/06/12 03:59:37;;;;;;;8.02;4.88;;;19.30;99.90;;;;;;4835268;29;37152;-75
2023/06/12 04:02:04;;;;;;;10.93;5.68;;;19.30;99.90;;;;;;4836352;29;39278;-75
2023/06/12 04:04:32;;;;;;;7.75;4.75;;;19.20;1.00;;;;;;4817111;29;38557;-76
2023/06/12 04:06:59;;;;;;;8.50;5.55;;;19.30;1.00;;;;;;4832980;29;37402;-75
2023/06/12 04:09:26;;;;;;;6.13;5.38;;;19.20;69.70;;;;;;4831484;29;35914;-76
2023/06/12 04:11:52;;;;;;;7.97;5.32;;;19.20;99.90;;;;;;4818903;29;37916;-75
2023/06/12 04:14:20;;;;;;;7.78;5.90;;;19.20;99.90;;;;;;4838183;29;38539;-75
2023/06/12 04:16:46;;;;;;;7.38;5.20;;;19.10;44.60;;;;;;4821481;29;36855;-76
2023/06/12 04:19:12;;;;;;;7.30;5.40;;;19.00;99.90;;;;;;4833953;29;36475;-76
2023/06/12 04:21:39;;;;;;;6.50;5.22;;;19.00;99.90;;;;;;4835855;29;39480;-76
2023/06/12 04:24:13;;;;;;;6.10;4.78;;;19.00;1.00;;;;;;4820243;29;38700;-75
2023/06/12 04:26:40;;;;;;;5.93;5.20;;;19.00;1.00;;;;;;4836935;29;38920;-75
2023/06/12 04:29:08;;;;;;;7.45;5.65;;;19.00;1.00;;;;;;4834858;29;36898;-75
2023/06/12 04:31:34;;;;;;;5.97;5.38;;;19.00;99.90;;;;;;4818979;29;37758;-77
2023/06/12 04:34:01;;;;;;;6.03;5.30;;;19.00;1.00;;;;;;4832086;29;37667;-76
2023/06/12 04:36:27;;;;;;;10.40;5.50;;;19.00;99.90;;;;;;4834200;29;48969;-77
2023/06/12 04:38:53;;;;;;;9.27;5.40;;;19.20;1.00;;;;;;4817238;29;36029;-75
2023/06/12 04:41:24;;;;;;;10.90;5.88;;;19.20;99.90;;;;;;4815709;29;40631;-75
2023/06/12 04:43:58;;;;;;;7.15;5.60;;;19.30;99.90;;;;;;4833634;29;38724;-75
2023/06/12 04:46:26;;;;;;;9.23;5.65;;;19.40;99.90;;;;;;4809269;29;36871;-75
2023/06/12 04:48:53;;;;;;;9.55;5.90;;;19.50;99.90;;;;;;4819035;29;37588;-75
2023/06/12 04:51:19;;;;;;;10.07;5.68;;;19.70;1.00;;;;;;4833768;29;39707;-76
2023/06/12 04:53:47;;;;;;;10.07;5.95;;;19.90;99.90;;;;;;4835381;29;37938;-76
2023/06/12 04:56:20;;;;;;;8.27;5.55;;;20.00;1.00;;;;;;4830121;29;37881;-76
2023/06/12 04:58:47;;;;;;;9.98;6.30;;;20.10;1.00;;;;;;4816320;29;36487;-78
2023/06/12 05:01:14;;;;;;;6.22;5.57;;;20.30;99.90;;;;;;4818146;29;39391;-76
2023/06/12 05:03:41;;;;;;;8.10;5.57;;;20.60;1.00;;;;;;4814091;29;37607;-78
2023/06/12 05:06:08;;;;;;;6.82;5.35;;;20.90;99.90;;;;;;4835382;29;38817;-81
2023/06/12 05:08:36;;;;;;;8.43;5.20;;;21.20;1.00;;;;;;4816508;29;37409;-82
2023/06/12 05:11:03;;;;;;;6.82;5.35;;;21.40;1.00;;;;;;4821064;29;38323;-80
2023/06/12 05:13:32;;;;;;;6.78;5.13;;;21.50;99.90;;;;;;4829361;29;37910;-80
2023/06/12 05:15:58;;;;;;;8.18;5.63;;;21.70;1.00;;;;;;4835830;29;38903;-80
2023/06/12 05:18:24;;;;;;;8.23;5.93;;;21.80;1.00;;;;;;4815793;29;36459;-80
2023/06/12 05:20:51;;;;;;;11.05;5.68;;;21.80;1.00;;;;;;4827437;29;40053;-83
2023/06/12 05:23:17;;;;;;;8.95;5.63;;;21.80;99.90;;;;;;4832792;29;38013;-81
2023/06/12 05:25:43;;;;;;;7.18;5.28;;;21.90;1.00;;;;;;4830264;29;39150;-82
2023/06/12 05:28:09;;;;;;;7.32;5.78;;;21.80;1.00;;;;;;4811928;29;37667;-83
2023/06/12 05:30:35;;;;;;;7.65;4.90;;;21.90;1.00;;;;;;4832289;29;38628;-85
2023/06/12 05:33:02;;;;;;;9.55;5.90;;;22.00;99.90;;;;;;4833069;29;38579;-80
2023/06/12 05:35:30;;;;;;;8.52;5.13;;;22.10;99.90;;;;;;4813078;29;38302;-82
2023/06/12 05:37:56;;;;;;;6.78;5.57;;;22.30;99.90;;;;;;4810351;29;36349;-83
2023/06/12 05:40:23;;;;;;;6.55;5.00;;;22.30;99.90;;;;;;4814817;29;37848;-82
2023/06/12 05:42:49;;;;;;;7.38;5.03;;;22.20;99.90;;;;;;4812691;29;38948;-86
2023/06/12 05:45:15;;;;;;;7.60;5.28;;;22.40;1.00;;;;;;4824351;29;37265;-85
2023/06/12 05:47:41;;;;;;;9.88;5.93;;;22.30;99.90;;;;;;4818379;29;37251;-84
2023/06/12 05:50:07;;;;;;;12.00;5.20;;;22.50;84.70;;;;;;4829378;29;38385;-81
2023/06/12 05:52:33;;;;;;;6.80;5.35;;;22.70;1.00;;;;;;4815896;29;37469;-83
2023/06/12 05:54:59;;;;;;;7.95;5.22;;;22.70;99.90;;;;;;4817542;29;36944;-80
2023/06/12 05:57:26;;;;;;;7.07;5.43;;;22.40;1.00;;;;;;4827208;29;36270;-82
2023/06/12 05:59:52;;;;;;;8.57;5.90;;;22.20;1.00;;;;;;4832033;29;41707;-81
2023/06/12 06:02:18;;;;;;;8.60;5.20;;;22.10;1.00;;;;;;4830792;29;39274;-82
2023/06/12 06:04:45;;;;;;;6.47;5.60;;;22.20;99.90;;;;;;4831466;29;37122;-82
2023/06/12 06:07:12;;;;;;;6.57;5.50;;;22.40;13.70;;;;;;4824801;29;36279;-83
2023/06/12 06:09:38;;;;;;;5.93;5.25;;;22.60;99.90;;;;;;4814550;29;38786;-81
2023/06/12 06:12:05;;;;;;;7.65;5.18;;;22.80;99.90;;;;;;4809276;29;37854;-81
2023/06/12 06:14:31;;;;;;;8.50;5.53;;;23.00;99.90;;;;;;4814983;29;38420;-83
2023/06/12 06:16:57;;;;;;;8.48;5.05;;;23.10;1.00;;;;;;4824494;29;37028;-83
2023/06/12 06:19:23;;;;;;;7.72;5.40;;;23.20;9.90;;;;;;4829868;29;38620;-80
2023/06/12 06:21:49;;;;;;;7.45;5.32;;;23.50;1.00;;;;;;4835336;29;38582;-81
2023/06/12 06:24:15;;;;;;;8.98;5.45;;;23.70;1.00;;;;;;4813695;29;38244;-86
2023/06/12 06:26:42;;;;;;;6.95;4.88;;;23.70;11.90;;;;;;4814297;29;36286;-82
2023/06/12 06:29:08;;;;;;;8.23;4.90;;;23.80;43.90;;;;;;4829656;29;39097;-80
2023/06/12 06:31:34;;;;;;;11.90;5.53;;;23.90;1.00;;;;;;4827493;29;38661;-81
2023/06/12 06:34:00;;;;;;;6.22;4.90;;;24.00;1.00;;;;;;4813477;29;37074;-82
2023/06/12 06:36:26;;;;;;;9.10;4.93;;;23.90;1.00;;;;;;4835330;29;38172;-85
2023/06/12 06:38:53;;;;;;;6.82;5.30;;;23.80;1.00;;;;;;4840126;29;38062;-84
2023/06/12 06:41:19;;;;;;;6.93;4.55;;;23.90;1.00;;;;;;4823048;29;40228;-85
2023/06/12 06:43:45;;;;;;;9.60;5.05;;;24.00;1.00;;;;;;4836084;29;36879;-87
2023/06/12 06:46:11;;;;;;;7.50;5.35;;;24.20;1.00;;;;;;4820442;29;38036;-86
2023/06/12 06:48:37;;;;;;;9.73;4.88;;;24.40;1.00;;;;;;4818593;29;37743;-86
2023/06/12 06:51:03;;;;;;;9.13;4.72;;;24.60;1.00;;;;;;4824531;29;38762;-88
2023/06/12 06:53:31;;;;;;;10.43;4.75;;;24.80;1.00;;;;;;4835914;29;38921;-87
2023/06/12 06:55:57;;;;;;;6.93;5.03;;;24.70;1.00;;;;;;4826433;29;36483;-87
2023/06/12 06:58:23;;;;;;;7.05;4.60;;;24.90;1.00;;;;;;4840044;29;38142;-89
2023/06/12 07:00:49;;;;;;;7.57;5.13;;;24.90;1.00;;;;;;4835354;29;37290;-89
2023/06/12 07:03:15;;;;;;;6.25;4.18;;;25.10;1.00;;;;;;4824128;29;36106;-90
2023/06/12 07:05:42;;;;;;;7.55;4.95;;;25.30;1.00;;;;;;4827045;29;36193;-89
2023/06/12 07:08:14;;;;;;;4.82;4.32;;;25.60;1.00;;;;;;4835093;29;37861;-91
2023/06/12 07:10:44;;;;;;;6.68;4.90;;;25.90;99.90;;;;;;4823997;29;36916;-88
2023/06/12 07:13:11;;;;;;;7.72;4.25;;;25.70;1.00;;;;;;4838050;29;38734;-88
2023/06/12 07:15:37;;;;;;;5.60;4.55;;;25.80;99.90;;;;;;4833188;29;37576;-93
2023/06/12 07:18:04;;;;;;;10.15;4.30;;;25.90;1.00;;;;;;4824433;29;39203;-91
2023/06/12 07:20:30;;;;;;;5.65;4.63;;;26.20;99.90;;;;;;4834683;29;38415;-85
2023/06/12 07:22:56;;;;;;;6.85;4.63;;;26.20;99.90;;;;;;4833462;29;37417;-84
2023/06/12 07:25:29;;;;;;;8.60;4.65;;;26.20;99.90;;;;;;4838752;29;37193;-84
2023/06/12 07:27:56;;;;;;;7.55;4.45;;;26.30;99.90;;;;;;4825411;29;38855;-86
2023/06/12 07:30:22;;;;;;;5.85;4.53;;;26.40;99.90;;;;;;4837955;29;38548;-84
2023/06/12 07:32:48;;;;;;;7.30;4.30;;;26.50;99.90;;;;;;4820582;29;37230;-87
2023/06/12 07:35:15;;;;;;;10.25;4.45;;;26.60;99.90;;;;;;4835274;29;36640;-86
2023/06/12 07:37:42;;;;;;;7.90;4.80;;;26.60;99.90;;;;;;4836657;29;39503;-83
2023/06/12 07:40:17;;;;;;;8.05;4.82;;;26.70;99.90;;;;;;4833890;29;37830;-88
2023/06/12 07:42:48;;;;;;;8.30;4.75;;;27.00;99.90;;;;;;4824099;29;38969;-90
2023/06/12 07:45:20;;;;;;;5.32;4.50;;;27.30;99.90;;;;;;4822634;29;36478;-90
2023/06/12 07:47:49;;;;;;;7.05;4.10;;;27.30;99.90;;;;;;4826463;29;38062;-88
2023/06/12 07:50:15;;;;;;;8.05;4.22;;;27.40;99.90;;;;;;4821188;29;37564;-91
2023/06/12 07:52:47;;;;;;;8.35;4.18;;;27.50;99.90;;;;;;4809142;29;38189;-91
2023/06/12 07:55:14;;;;;;;8.63;4.10;;;27.20;99.90;;;;;;4823457;29;37531;-88
2023/06/12 07:57:40;;;;;;;5.75;3.92;;;27.50;99.90;;;;;;4823363;29;40246;-93
2023/06/12 08:00:07;;;;;;;11.90;7.03;;;27.60;99.90;;;;;;4828356;29;37715;-92
2023/06/12 08:02:42;;;;;;;10.73;7.22;;;27.90;99.90;;;;;;4828551;29;36951;-88
2023/06/12 08:05:10;;;;;;;10.40;6.47;;;28.20;88.90;;;;;;4822665;29;35772;-87
2023/06/12 08:07:36;;;;;;;9.95;5.40;;;28.20;78.80;;;;;;4815479;29;39153;-89
2023/06/12 08:10:03;;;;;;;6.60;4.57;;;28.30;93.30;;;;;;4822349;29;37260;-87
2023/06/12 08:12:29;;;;;;;9.00;4.45;;;28.20;29.20;;;;;;4835088;29;37138;-89
2023/06/12 08:14:55;;;;;;;8.40;4.40;;;28.20;49.00;;;;;;4821955;29;37556;-90
2023/06/12 08:17:27;;;;;;;6.45;4.10;;;28.20;38.50;;;;;;4823809;29;37490;-90
2023/06/12 08:19:56;;;;;;;;;;;28.40;11.80;;;;;;4832635;29;37477;-88
2023/06/12 08:22:25;;;;;;;5.68;3.72;;;28.60;22.90;;;;;;4821695;29;37112;-89
2023/06/12 08:24:52;;;;;;;5.82;3.88;;;28.80;24.90;;;;;;4819470;29;36775;-87
2023/06/12 08:27:18;;;;;;;4.20;3.30;;;29.10;14.00;;;;;;4815671;29;39430;-86
2023/06/12 08:29:45;;;;;;;9.05;4.15;;;29.40;1.00;;;;;;4843643;29;37878;-88
2023/06/12 08:32:11;;;;;;;6.28;3.95;;;29.40;16.20;;;;;;4839951;29;38473;-87
2023/06/12 08:34:37;;;;;;;7.57;3.92;;;29.30;21.90;;;;;;4821307;29;36376;-87
2023/06/12 08:37:03;;;;;;;9.35;4.07;;;29.40;1.00;;;;;;4833738;29;38752;-89
2023/06/12 08:39:29;;;;;;;7.18;3.70;;;29.60;1.00;;;;;;4822112;29;37426;-90
2023/06/12 08:42:02;;;;;;;5.53;3.67;;;29.90;1.00;;;;;;4832265;29;37392;-86
2023/06/12 08:44:30;;;;;;;4.95;3.70;;;30.10;1.00;;;;;;4839526;29;47081;-86
2023/06/12 08:46:59;;;;;;;4.03;3.22;;;29.80;1.00;;;;;;4812917;29;39180;-86
2023/06/12 08:49:30;;;;;;;7.75;4.20;;;29.90;1.00;;;;;;4814619;29;37570;-85
2023/06/12 08:51:56;;;;;;;3.72;3.40;;;29.80;1.00;;;;;;4832870;29;36994;-86
2023/06/12 08:54:25;;;;;;;6.88;4.03;;;29.60;1.00;;;;;;4821924;29;37632;-86
2023/06/12 08:56:56;;;;;;;4.30;3.75;;;29.60;1.00;;;;;;4810937;29;40034;-87
2023/06/12 08:59:23;;;;;;;5.55;3.92;;;29.70;1.00;;;;;;4802703;29;37221;-88
2023/06/12 09:01:53;;;;;;;4.68;3.50;;;29.70;1.00;;;;;;4813022;29;36832;-81
2023/06/12 09:04:28;;;;;;;6.90;3.80;;;29.70;1.00;;;;;;4828883;29;37209;-84
2023/06/12 09:07:01;;;;;;;5.15;3.30;;;29.80;1.00;;;;;;4832355;29;39226;-82
2023/06/12 09:09:48;;;;;;;6.13;3.40;;;29.60;1.00;;;;;;4823975;29;40326;-83
2023/06/12 09:12:15;;;;;;;4.47;3.47;;;29.70;1.00;;;;;;4811215;29;37073;-82
2023/06/12 09:14:44;;;;;;;6.43;4.10;;;29.60;1.00;;;;;;4832049;29;36921;-85
2023/06/12 09:17:11;;;;;;;4.70;3.60;;;29.70;1.00;;;;;;4817477;29;37941;-82
2023/06/12 09:19:40;;;;;;;6.55;3.90;;;29.90;1.00;;;;;;4818109;29;37692;-84
2023/06/12 09:22:07;;;;;;;6.35;3.45;;;29.70;1.00;;;;;;4815723;29;38156;-84
2023/06/12 09:24:33;;;;;;;3.38;3.08;;;29.80;1.00;;;;;;4833040;29;37155;-84
2023/06/12 09:27:01;;;;;;;5.03;3.75;;;29.90;1.00;;;;;;4815954;29;38926;-83
2023/06/12 09:29:32;;;;;;;6.20;3.53;;;30.00;1.00;;;;;;4834988;29;47444;-84
2023/06/12 09:32:14;;;;;;;5.00;4.03;;;30.20;1.00;;;;;;4831627;29;38990;-84
2023/06/12 09:34:50;;;;;;;3.90;3.47;;;30.40;1.00;;;;;;4830742;29;47379;-83
2023/06/12 09:37:16;;;;;;;4.70;3.65;;;30.20;1.00;;;;;;4835366;29;38387;-85
2023/06/12 09:39:43;;;;;;;7.18;3.67;;;30.00;1.00;;;;;;4832288;29;38136;-86
2023/06/12 09:42:13;;;;;;;4.43;3.13;;;29.80;1.00;;;;;;4816369;29;37065;-83
2023/06/12 09:44:39;;;;;;;5.90;3.40;;;29.70;1.00;;;;;;4837345;29;36382;-85
2023/06/12 09:47:05;;;;;;;4.93;3.20;;;30.10;1.00;;;;;;4833642;29;38242;-85
2023/06/12 09:49:33;;;;;;;6.38;3.72;;;30.30;1.00;;;;;;4830659;29;38399;-84
2023/06/12 09:52:04;;;;;;;4.30;3.33;;;30.30;1.00;;;;;;4816275;29;38941;-83
2023/06/12 09:54:32;;;;;;;5.18;3.28;;;30.60;1.00;;;;;;4818777;29;47294;-84
2023/06/12 09:57:05;;;;;;;7.70;3.50;;;30.20;1.00;;;;;;4831017;29;39495;-84
2023/06/12 09:59:33;;;;;;;4.50;3.42;;;30.40;1.00;;;;;;4814600;29;47299;-82
2023/06/12 10:02:12;;;;;;;7.75;3.28;;;30.50;1.00;;;;;;4816507;29;37464;-83
2023/06/12 10:04:59;;;;;;;5.63;3.10;;;31.00;1.00;;;;;;4824052;29;48897;-80
2023/06/12 10:07:37;;;;;;;8.55;3.38;;;30.80;1.00;;;;;;4825148;29;38030;-84
2023/06/12 10:10:07;;;;;;;4.10;3.25;;;30.30;1.00;;;;;;4817520;29;38820;-87
2023/06/12 10:12:34;;;;;;;9.20;3.63;;;30.10;1.00;;;;;;4819143;29;47151;-86
2023/06/12 10:15:05;;;;;;;4.25;3.05;;;30.30;1.00;;;;;;4827791;29;35707;-86
2023/06/12 10:17:33;;;;;;;4.43;3.07;;;30.30;1.00;;;;;;4810197;29;47190;-85
2023/06/12 10:20:01;;;;;;;7.05;3.55;;;30.00;1.00;;;;;;4823414;29;40324;-79
2023/06/12 10:22:27;;;;;;;8.75;3.53;;;29.80;1.00;;;;;;4818833;29;36880;-88
2023/06/12 10:24:56;;;;;;;6.18;3.60;;;29.90;1.00;;;;;;4816194;29;34856;-86
2023/06/12 10:27:24;;;;;;;5.40;3.30;;;30.20;1.00;;;;;;4822950;29;37757;-88
2023/06/12 10:29:59;;;;;;;5.18;3.47;;;30.30;1.00;;;;;;4813814;29;37131;-87
2023/06/12 10:32:32;;;;;;;4.95;3.60;;;30.20;1.00;;;;;;4818058;29;37191;-88
2023/06/12 10:35:01;;;;;;;5.88;3.40;;;30.40;1.00;;;;;;4823267;29;37098;-89
2023/06/12 10:37:31;;;;;;;3.42;2.83;;;30.80;1.00;;;;;;4818418;29;37961;-88
2023/06/12 10:40:16;;;;;;;5.75;3.38;;;31.00;1.00;;;;;;4823359;29;37617;-87
2023/06/12 10:42:47;;;;;;;4.28;3.38;;;31.10;1.00;;;;;;4816698;29;47351;-87
2023/06/12 10:45:24;;;;;;;3.88;3.20;;;30.90;1.00;;;;;;4845715;29;35950;-89
2023/06/12 10:48:03;;;;;;;10.48;3.30;;;30.70;1.00;;;;;;4801791;29;40279;-86
2023/06/12 10:50:35;;;;;;;3.00;2.63;;;30.70;1.00;;;;;;4828187;29;47575;-88
2023/06/12 10:53:04;;;;;;;4.40;2.75;;;30.90;1.00;;;;;;4823822;29;36732;-89
2023/06/12 10:55:32;;;;;;;4.78;3.00;;;31.10;1.00;;;;;;4815062;29;47360;-91
2023/06/12 10:58:03;;;;;;;3.33;2.95;;;31.20;1.00;;;;;;4822316;29;37683;-86
2023/06/12 11:00:47;;;;;;;2.85;2.65;;;31.10;1.00;;;;;;4805628;29;47157;-87
2023/06/12 11:03:28;;;;;;;5.68;2.95;;;31.30;1.00;;;;;;4804208;29;37315;-86
2023/06/12 11:06:15;;;;;;;4.32;3.22;;;31.00;1.00;;;;;;4794811;29;35718;-86
2023/06/12 11:08:43;;;;;;;8.40;2.92;;;31.20;1.00;;;;;;4818266;29;48531;-85
2023/06/12 11:11:11;;;;;;;3.70;2.42;;;31.20;1.00;;;;;;4818809;29;38124;-86
2023/06/12 11:13:41;;;;;;;4.22;2.90;;;31.40;1.00;;;;;;4820786;29;38365;-83
2023/06/12 11:16:12;;;;;;;3.88;2.47;;;31.60;1.00;;;;;;4795820;29;37793;-86
2023/06/12 11:18:38;;;;;;;2.42;2.22;;;31.60;1.00;;;;;;4819533;29;37736;-90
2023/06/12 11:21:04;;;;;;;4.60;2.60;;;31.80;1.00;;;;;;4799712;29;38013;-84
2023/06/12 11:23:30;;;;;;;5.85;2.53;;;31.90;1.00;;;;;;4797373;29;38463;-83
2023/06/12 11:25:59;;;;;;;3.88;2.75;;;31.70;1.00;;;;;;4813424;29;37133;-86
2023/06/12 11:28:29;;;;;;;5.75;2.90;;;31.80;1.00;;;;;;4803238;29;39993;-83
2023/06/12 11:30:55;;;;;;;4.03;2.30;;;31.60;1.00;;;;;;4806603;29;37026;-84
2023/06/12 11:33:22;;;;;;;4.72;2.63;;;31.30;1.00;;;;;;4809476;29;37173;-85
2023/06/12 11:35:51;;;;;;;6.15;2.92;;;31.80;1.00;;;;;;4800817;29;36569;-84
2023/06/12 11:38:20;;;;;;;3.35;2.50;;;31.70;1.00;;;;;;4816679;29;37696;-86
2023/06/12 11:40:48;;;;;;;6.53;2.95;;;32.00;1.00;;;;;;4799789;29;38316;-87
2023/06/12 11:43:16;;;;;;;3.88;3.10;;;31.70;1.00;;;;;;4806699;29;37731;-86
2023/06/12 11:45:43;;;;;;;5.22;3.22;;;31.80;1.00;;;;;;4821450;29;36799;-88
2023/06/12 11:48:16;;;;;;;3.20;2.90;;;31.90;1.00;;;;;;4803197;29;37688;-88
2023/06/12 11:50:51;;;;;;;2.95;2.35;;;31.80;1.00;;;;;;4794937;29;37124;-87
2023/06/12 11:53:20;;;;;;;3.70;2.65;;;31.70;1.00;;;;;;4818202;29;38009;-88
2023/06/12 11:55:56;;;;;;;4.70;2.90;;;31.90;1.00;;;;;;4808151;29;36656;-88
2023/06/12 11:58:50;;;;;;;3.00;2.80;;;31.90;1.00;;;;;;4808483;29;39108;-87
2023/06/12 12:01:21;;;;;;;5.82;3.40;;;32.00;1.00;;;;;;4807116;29;37306;-85
2023/06/12 12:03:47;;;;;;;5.68;3.67;;;32.00;1.00;;;;;;4816145;29;37179;-85
2023/06/12 12:06:50;;;;;;;3.35;3.05;;;32.00;1.00;;;;;;4789187;29;37112;-87
2023/06/12 12:09:24;;;;;;;4.50;2.85;;;32.20;1.00;;;;;;4814809;29;39603;-85
2023/06/12 12:11:50;;;;;;;7.53;3.65;;;32.00;1.00;;;;;;4788365;29;38558;-85
2023/06/12 12:14:16;;;;;;;3.53;3.17;;;31.90;1.00;;;;;;4803403;29;36891;-86
2023/06/12 12:16:44;;;;;;;3.67;3.28;;;32.20;1.00;;;;;;4809154;29;36358;-87
2023/06/12 12:19:27;;;;;;;5.30;3.20;;;32.20;1.00;;;;;;4803493;29;37480;-85
2023/06/12 12:21:58;;;;;;;3.08;2.80;;;32.50;1.00;;;;;;4798286;29;38737;-86
2023/06/12 12:24:24;;;;;;;4.50;3.40;;;32.40;1.00;;;;;;4803650;29;38287;-85
2023/06/12 12:26:52;;;;;;;4.72;3.33;;;32.40;1.00;;;;;;4801556;29;36172;-85
2023/06/12 12:29:20;;;;;;;4.57;3.10;;;32.30;1.00;;;;;;4810074;29;37867;-84
2023/06/12 12:31:48;;;;;;;6.47;3.67;;;32.30;1.00;;;;;;4814319;29;38372;-85
2023/06/12 12:34:15;;;;;;;4.47;3.33;;;32.10;1.00;;;;;;4798044;29;38383;-86
2023/06/12 12:36:42;;;;;;;4.30;3.70;;;31.50;1.00;;;;;;4803234;29;36881;-86
2023/06/12 12:39:09;;;;;;;4.20;3.33;;;31.60;1.00;;;;;;4793756;29;38190;-86
2023/06/12 12:41:36;;;;;;;3.80;3.50;;;31.80;1.00;;;;;;4804051;29;37763;-84
2023/06/12 12:44:02;;;;;;;3.85;3.33;;;31.60;1.00;;;;;;4800304;29;37181;-86
2023/06/12 12:46:28;;;;;;;3.53;3.10;;;31.90;1.00;;;;;;4793813;29;36058;-84
2023/06/12 12:48:54;;;;;;;7.65;3.95;;;32.00;1.00;;;;;;4832228;29;39718;-85
2023/06/12 12:51:20;;;;;;;8.07;3.67;;;31.90;1.00;;;;;;4799924;29;40102;-88
2023/06/12 12:53:47;;;;;;;4.88;3.70;;;31.90;1.00;;;;;;4802902;29;36930;-90
2023/06/12 12:56:13;;;;;;;6.55;3.60;;;32.10;1.00;;;;;;4811863;29;37268;-88
2023/06/12 12:58:39;;;;;;;4.53;3.70;;;32.10;1.00;;;;;;4819328;29;38600;-86
2023/06/12 13:01:05;;;;;;;4.35;3.80;;;32.00;1.00;;;;;;4798632;29;38484;-89
2023/06/12 13:03:37;;;;;;;3.50;2.78;;;32.00;1.00;;;;;;4800849;29;38098;-87